createdAt,value
2022-12-15T00:00:51.483Z,99106.06
2022-12-15T00:06:11.619Z,99100.38
2022-12-15T00:11:31.843Z,99100.66
2022-12-15T00:16:52.188Z,99103.13
2022-12-15T00:22:12.432Z,99121.75
2022-12-15T00:27:32.721Z,99137.50
2022-12-15T00:32:53.432Z,99156.13
2022-12-15T00:38:13.685Z,99159.00
2022-12-15T00:43:15.249Z,99168.88
2022-12-15T00:48:16.819Z,99175.06
2022-12-15T00:53:38.897Z,99173.59
2022-12-15T00:58:59.115Z,99163.69
2022-12-15T01:04:19.435Z,99151.97
2022-12-15T01:09:39.569Z,99150.44
2022-12-15T01:14:59.904Z,99162.34
2022-12-15T01:20:18.216Z,99180.47
2022-12-15T01:25:22.054Z,99188.19
2022-12-15T01:30:25.862Z,99196.88
2022-12-15T01:35:27.802Z,99203.91
2022-12-15T01:40:47.291Z,99208.44
2022-12-15T01:45:53.362Z,99204.25
2022-12-15T01:50:59.952Z,99210.59
2022-12-15T01:56:05.119Z,99207.94
2022-12-15T02:01:07.392Z,99206.59
2022-12-15T02:06:11.430Z,99213.97
2022-12-15T02:11:31.224Z,99221.03
2022-12-15T02:16:42.100Z,99215.31
2022-12-15T02:22:08.157Z,99241.94
2022-12-15T02:27:22.922Z,99243.44
2022-12-15T02:32:35.005Z,99233.75
2022-12-15T02:37:39.383Z,99243.81
2022-12-15T02:42:47.992Z,99242.63
2022-12-15T02:48:06.794Z,99248.81
2022-12-15T02:53:34.153Z,99249.16
2022-12-15T02:58:54.678Z,99259.53
2022-12-15T03:03:57.958Z,99261.88
2022-12-15T03:08:59.628Z,99268.06
2022-12-15T03:14:01.266Z,99271.94
2022-12-15T03:19:02.831Z,99276.78
2022-12-15T03:24:04.495Z,99268.91
2022-12-15T03:29:06.074Z,99250.31
2022-12-15T03:34:07.652Z,99255.88
2022-12-15T03:39:09.250Z,99248.16
2022-12-15T03:44:11.201Z,99258.22
2022-12-15T03:49:12.869Z,99274.28
2022-12-15T03:54:14.928Z,99265.44
2022-12-15T03:59:16.495Z,99252.19
2022-12-15T04:04:18.054Z,99258.22
2022-12-15T04:09:19.613Z,99266.25
2022-12-15T04:14:21.157Z,99243.47
2022-12-15T04:19:41.862Z,99238.13
2022-12-15T04:25:02.162Z,99223.22
2022-12-15T04:30:22.852Z,99230.59
2022-12-15T04:35:43.118Z,99226.06
2022-12-15T04:41:09.933Z,99233.09
2022-12-15T04:46:30.049Z,99232.09
2022-12-15T04:51:52.381Z,99229.06
2022-12-15T04:57:12.556Z,99236.78
2022-12-15T05:02:32.909Z,99239.28
2022-12-15T05:07:53.020Z,99254.69
2022-12-15T05:13:13.245Z,99269.75
2022-12-15T05:18:35.864Z,99258.88
2022-12-15T05:23:56.075Z,99247.50
2022-12-15T05:29:16.282Z,99251.16
2022-12-15T05:34:29.336Z,99254.50
2022-12-15T05:39:31.178Z,99254.50
2022-12-15T05:44:32.923Z,99253.53
2022-12-15T05:49:35.757Z,99260.53
2022-12-15T05:54:37.459Z,99256.53
2022-12-15T05:59:39.183Z,99247.47
2022-12-15T06:04:43.476Z,99255.50
2022-12-15T06:09:45.425Z,99257.88
2022-12-15T06:14:47.098Z,99263.03
2022-12-15T06:19:51.627Z,99277.78
2022-12-15T06:24:53.183Z,99290.69
2022-12-15T06:29:54.733Z,99290.31
2022-12-15T06:34:56.281Z,99293.00
2022-12-15T06:39:58.083Z,99306.41
2022-12-15T06:44:59.722Z,99305.25
2022-12-15T06:50:02.122Z,99308.94
2022-12-15T06:55:03.968Z,99316.31
2022-12-15T07:00:06.491Z,99293.19
2022-12-15T07:05:09.307Z,99285.16
2022-12-15T07:10:11.429Z,99279.97
2022-12-15T07:15:13.366Z,99289.66
2022-12-15T07:20:15.317Z,99296.03
2022-12-15T07:25:16.962Z,99279.97
2022-12-15T07:30:18.780Z,99275.59
2022-12-15T07:35:20.330Z,99279.13
2022-12-15T07:40:22.049Z,99286.81
2022-12-15T07:45:23.744Z,99309.75
2022-12-15T07:50:25.631Z,99318.16
2022-12-15T07:55:50.203Z,99325.66
2022-12-15T08:00:49.338Z,99344.94
2022-12-15T08:05:50.944Z,99355.00
2022-12-15T08:10:52.784Z,99367.25
2022-12-15T08:15:55.083Z,99370.59
2022-12-15T08:21:02.659Z,99388.19
2022-12-15T08:26:07.737Z,99401.28
2022-12-15T08:31:15.242Z,99438.50
2022-12-15T08:36:18.973Z,99456.75
2022-12-15T08:41:23.649Z,99469.16
2022-12-15T08:46:29.566Z,99455.56
2022-12-15T08:51:32.831Z,99444.19
2022-12-15T08:56:36.082Z,99456.09
2022-12-15T09:01:40.244Z,99443.50
2022-12-15T09:06:42.081Z,99433.78
2022-12-15T09:11:43.636Z,99440.47
2022-12-15T09:16:45.379Z,99453.88
2022-12-15T09:21:48.156Z,99475.00
2022-12-15T09:26:50.101Z,99491.25
2022-12-15T09:31:51.713Z,99486.72
2022-12-15T09:36:56.818Z,99495.63
2022-12-15T09:42:00.628Z,99494.47
2022-12-15T09:47:30.363Z,99491.97
2022-12-15T09:52:38.708Z,99490.13
2022-12-15T09:57:50.024Z,99499.00
2022-12-15T10:03:16.197Z,99495.81
2022-12-15T10:08:20.633Z,99516.28
2022-12-15T10:13:38.527Z,99540.09
2022-12-15T10:19:32.769Z,99578.34
2022-12-15T10:30:15.401Z,99588.91
2022-12-15T10:35:21.961Z,99576.66
2022-12-15T10:40:43.147Z,99592.78
2022-12-15T10:45:44.754Z,99610.22
2022-12-15T10:50:47.152Z,99611.94
2022-12-15T10:56:00.376Z,99617.78
2022-12-15T11:01:08.191Z,99621.66
2022-12-15T11:06:19.718Z,99617.78
2022-12-15T11:11:48.191Z,99624.34
2022-12-15T11:16:58.108Z,99639.56
2022-12-15T11:22:08.394Z,99658.22
2022-12-15T11:27:20.925Z,99659.75
2022-12-15T11:32:33.418Z,99656.06
2022-12-15T11:37:39.395Z,99673.34
2022-12-15T11:42:53.226Z,99667.97
2022-12-15T11:48:01.210Z,99673.53
2022-12-15T11:53:13.646Z,99676.03
2022-12-15T11:58:37.076Z,99686.28
2022-12-15T12:03:54.816Z,99703.91
2022-12-15T12:09:04.675Z,99720.00
2022-12-15T12:14:29.548Z,99746.34
2022-12-15T12:19:37.850Z,99742.47
2022-12-15T12:24:44.800Z,99764.13
2022-12-15T12:29:57.560Z,99757.63
2022-12-15T12:35:31.369Z,99776.94
2022-12-15T12:40:40.800Z,99767.34
2022-12-15T12:45:50.986Z,99778.75
2022-12-15T12:51:09.485Z,99759.28
2022-12-15T12:56:31.149Z,99759.28
2022-12-15T13:01:34.785Z,99770.91
2022-12-15T13:06:36.456Z,99773.09
2022-12-15T13:11:53.029Z,99791.91
2022-12-15T13:22:36.901Z,99782.50
2022-12-15T13:27:40.723Z,99745.53
2022-12-15T13:32:51.428Z,99743.53
2022-12-15T13:37:56.281Z,99720.22
2022-12-15T13:43:04.414Z,99713.66
2022-12-15T13:48:29.900Z,99725.91
2022-12-15T13:53:43.338Z,99706.59
2022-12-15T13:58:50.796Z,99696.34
2022-12-15T14:04:12.730Z,99683.41
2022-12-15T14:09:16.944Z,99677.88
2022-12-15T14:14:22.677Z,99657.91
2022-12-15T14:19:24.511Z,99639.25
2022-12-15T14:24:40.846Z,99628.03
2022-12-15T14:29:42.624Z,99602.19
2022-12-15T14:34:45.039Z,99579.72
2022-12-15T14:39:58.230Z,99555.84
2022-12-15T14:44:59.900Z,99521.78
2022-12-15T14:50:03.491Z,99510.34
2022-12-15T14:55:37.911Z,99515.88
2022-12-15T15:00:50.670Z,99510.31
2022-12-15T15:05:58.013Z,99508.47
2022-12-15T15:11:34.136Z,99511.16
2022-12-15T15:16:35.860Z,99503.09
2022-12-15T15:21:37.715Z,99525.63
2022-12-15T15:26:43.245Z,99525.97
2022-12-15T15:31:45.092Z,99522.16
2022-12-15T15:36:47.348Z,99512.59
2022-12-15T15:41:48.959Z,99475.03
2022-12-15T15:46:52.002Z,99446.88
2022-12-15T15:51:56.027Z,99416.53
2022-12-15T15:56:57.577Z,99375.81
2022-12-15T16:01:59.821Z,99343.31
2022-12-15T16:07:01.866Z,99325.91
2022-12-15T16:12:03.722Z,99305.28
2022-12-15T16:17:09.249Z,99272.78
2022-12-15T16:22:18.221Z,99240.50
2022-12-15T16:27:19.781Z,99235.47
2022-12-15T16:32:21.531Z,99229.94
2022-12-15T16:37:27.416Z,99208.69
2022-12-15T16:42:28.938Z,99197.63
2022-12-15T16:47:30.464Z,99190.63
2022-12-15T16:52:32.286Z,99185.09
2022-12-15T16:57:36.219Z,99187.91
2022-12-15T17:02:38.733Z,99177.91
2022-12-15T17:07:41.030Z,99165.88
2022-12-15T17:12:43.458Z,99137.56
2022-12-15T17:17:45.061Z,99139.91
2022-12-15T17:22:50.268Z,99141.41
2022-12-15T17:27:56.077Z,99140.91
2022-12-15T17:32:57.852Z,99142.56
2022-12-15T17:37:59.428Z,99150.28
2022-12-15T17:43:00.996Z,99154.63
2022-12-15T17:48:02.564Z,99149.75
2022-12-15T17:53:05.698Z,99168.19
2022-12-15T17:58:20.927Z,99172.19
2022-12-15T18:03:26.307Z,99175.03
2022-12-15T18:08:28.339Z,99197.13
2022-12-15T18:13:35.259Z,99190.25
2022-12-15T18:18:37.230Z,99212.00
2022-12-15T18:23:38.770Z,99223.22
2022-12-15T18:28:40.854Z,99226.41
2022-12-15T18:33:44.447Z,99248.19
2022-12-15T18:38:46.051Z,99253.56
2022-12-15T18:43:47.808Z,99257.72
2022-12-15T18:48:49.348Z,99264.41
2022-12-15T18:53:51.378Z,99283.69
2022-12-15T18:58:52.967Z,99304.28
2022-12-15T19:03:54.496Z,99312.47
2022-12-15T19:08:56.132Z,99351.69
2022-12-15T19:13:59.315Z,99360.03
2022-12-15T19:19:19.460Z,99384.69
2022-12-15T19:24:45.973Z,99406.47
2022-12-15T19:29:48.248Z,99433.13
2022-12-15T19:34:50.232Z,99461.63
2022-12-15T19:39:53.115Z,99491.13
2022-12-15T19:44:54.637Z,99492.28
2022-12-15T19:49:56.245Z,99503.84
2022-12-15T19:54:57.874Z,99502.34
2022-12-15T19:59:59.402Z,99503.19
2022-12-15T20:05:03.316Z,99501.69
2022-12-15T20:10:22.039Z,99510.19
2022-12-15T20:15:26.356Z,99499.16
2022-12-15T20:20:29.201Z,99484.91
2022-12-15T20:25:34.501Z,99454.56
2022-12-15T20:30:36.039Z,99453.56
2022-12-15T20:35:37.876Z,99465.13
2022-12-15T20:40:39.510Z,99451.56
2022-12-15T20:45:41.575Z,99442.50
2022-12-15T20:50:48.184Z,99421.91
2022-12-15T20:55:53.375Z,99424.38
2022-12-15T21:00:54.990Z,99431.44
2022-12-15T21:05:58.653Z,99441.16
2022-12-15T21:11:20.551Z,99441.16
2022-12-15T21:16:26.055Z,99432.44
2022-12-15T21:21:31.402Z,99427.44
2022-12-15T21:26:33.160Z,99427.59
2022-12-15T21:31:34.731Z,99425.06
2022-12-15T21:36:37.722Z,99443.00
2022-12-15T21:41:42.886Z,99434.94
2022-12-15T21:46:44.468Z,99412.84
2022-12-15T21:51:56.810Z,99404.13
2022-12-15T21:57:02.797Z,99394.91
2022-12-15T22:02:26.154Z,99387.53
2022-12-15T22:07:27.786Z,99383.50
2022-12-15T22:12:29.351Z,99383.81
2022-12-15T22:17:32.313Z,99372.78
2022-12-15T22:22:33.830Z,99363.38
2022-12-15T22:27:35.372Z,99341.94
2022-12-15T22:32:36.920Z,99331.22
2022-12-15T22:37:38.449Z,99318.03
2022-12-15T22:42:44.104Z,99313.50
2022-12-15T22:47:49.572Z,99293.03
2022-12-15T22:58:23.711Z,99260.22
2022-12-15T23:03:29.463Z,99257.56
2022-12-15T23:08:33.997Z,99249.50
2022-12-15T23:13:35.661Z,99243.69
2022-12-15T23:18:37.306Z,99234.97
2022-12-15T23:23:38.869Z,99223.25
2022-12-15T23:28:41.193Z,99216.38
2022-12-15T23:33:42.719Z,99212.53
2022-12-15T23:38:44.727Z,99201.16
2022-12-15T23:43:46.459Z,99176.22
2022-12-15T23:48:48.028Z,99171.56
2022-12-15T23:53:49.681Z,99164.66
2022-12-15T23:58:59.713Z,99154.31
